createdAt,value
2022-10-02T00:02:24.955Z,100.00
2022-10-02T00:05:06.979Z,100.00
2022-10-02T00:07:41.083Z,100.00
2022-10-02T00:10:44.798Z,100.00
2022-10-02T00:13:21.990Z,100.00
2022-10-02T00:15:48.958Z,100.00
2022-10-02T00:18:20.239Z,100.00
2022-10-02T00:21:10.716Z,100.00
2022-10-02T00:23:44.040Z,100.00
2022-10-02T00:26:23.870Z,100.00
2022-10-02T00:28:57.883Z,100.00
2022-10-02T00:31:33.426Z,100.00
2022-10-02T00:34:26.966Z,100.00
2022-10-02T00:37:05.598Z,100.00
2022-10-02T00:40:10.245Z,100.00
2022-10-02T00:42:48.692Z,100.00
2022-10-02T00:45:25.925Z,100.00
2022-10-02T00:48:27.473Z,100.00
2022-10-02T00:51:14.809Z,100.00
2022-10-02T00:53:46.833Z,100.00
2022-10-02T00:56:19.878Z,100.00
2022-10-02T00:58:58.910Z,100.00
2022-10-02T01:01:41.696Z,100.00
2022-10-02T01:04:12.270Z,100.00
2022-10-02T01:06:38.942Z,100.00
2022-10-02T01:09:05.546Z,100.00
2022-10-02T01:11:32.113Z,100.00
2022-10-02T01:13:58.822Z,100.00
2022-10-02T01:16:26.079Z,100.00
2022-10-02T01:18:52.670Z,100.00
2022-10-02T01:21:37.991Z,100.00
2022-10-02T01:24:20.139Z,100.00
2022-10-02T01:26:46.726Z,100.00
2022-10-02T01:29:13.811Z,100.00
2022-10-02T01:31:40.347Z,100.00
2022-10-02T01:34:07.093Z,100.00
2022-10-02T01:36:33.876Z,100.00
2022-10-02T01:39:01.320Z,100.00
2022-10-02T01:41:27.986Z,100.00
2022-10-02T01:43:57.948Z,100.00
2022-10-02T01:46:31.317Z,100.00
2022-10-02T01:48:57.670Z,100.00
2022-10-02T01:51:59.895Z,100.00
2022-10-02T01:54:58.498Z,100.00
2022-10-02T01:57:46.482Z,100.00
2022-10-02T02:00:22.239Z,100.00
2022-10-02T02:03:10.965Z,100.00
2022-10-02T02:06:03.547Z,100.00
2022-10-02T02:08:58.456Z,100.00
2022-10-02T02:11:28.481Z,100.00
2022-10-02T02:14:27.232Z,100.00
2022-10-02T02:17:00.463Z,100.00
2022-10-02T02:19:42.396Z,100.00
2022-10-02T02:22:30.239Z,100.00
2022-10-02T02:25:16.639Z,100.00
2022-10-02T02:27:45.569Z,100.00
2022-10-02T02:30:13.536Z,100.00
2022-10-02T02:32:45.443Z,100.00
2022-10-02T02:35:21.442Z,100.00
2022-10-02T02:37:49.407Z,100.00
2022-10-02T02:40:17.399Z,100.00
2022-10-02T02:42:51.559Z,100.00
2022-10-02T02:45:39.007Z,100.00
2022-10-02T02:48:12.398Z,100.00
2022-10-02T02:50:48.770Z,100.00
2022-10-02T02:53:25.202Z,100.00
2022-10-02T02:56:00.431Z,100.00
2022-10-02T02:58:31.022Z,100.00
2022-10-02T03:00:57.805Z,100.00
2022-10-02T03:03:24.471Z,100.00
2022-10-02T03:05:53.671Z,100.00
2022-10-02T03:08:26.358Z,100.00
2022-10-02T03:11:15.525Z,100.00
2022-10-02T03:13:46.621Z,100.00
2022-10-02T03:16:36.527Z,100.00
2022-10-02T03:19:08.988Z,100.00
2022-10-02T03:21:40.768Z,100.00
2022-10-02T03:24:44.338Z,100.00
2022-10-02T03:27:48.062Z,100.00
2022-10-02T03:30:16.065Z,100.00
2022-10-02T03:32:43.976Z,100.00
2022-10-02T03:35:13.060Z,100.00
2022-10-02T03:37:41.895Z,100.00
2022-10-02T03:40:09.243Z,100.00
2022-10-02T03:42:36.693Z,100.00
2022-10-02T03:45:04.056Z,100.00
2022-10-02T03:47:30.724Z,100.00
2022-10-02T03:49:57.176Z,100.00
2022-10-02T03:52:24.275Z,100.00
2022-10-02T03:54:58.686Z,100.00
2022-10-02T03:57:25.762Z,100.00
2022-10-02T04:00:09.293Z,100.00
2022-10-02T04:03:12.825Z,100.00
2022-10-02T04:05:50.224Z,100.00
2022-10-02T04:08:24.218Z,100.00
2022-10-02T04:11:04.697Z,100.00
2022-10-02T04:13:41.056Z,100.00
2022-10-02T04:16:12.765Z,100.00
2022-10-02T04:18:44.493Z,100.00
2022-10-02T04:21:44.555Z,100.00
2022-10-02T04:24:29.109Z,100.00
2022-10-02T04:27:03.638Z,100.00
2022-10-02T04:29:53.331Z,100.00
2022-10-02T04:32:26.136Z,100.00
2022-10-02T04:34:52.833Z,100.00
2022-10-02T04:37:45.217Z,100.00
2022-10-02T04:40:50.331Z,100.00
2022-10-02T04:44:06.977Z,100.00
2022-10-02T04:46:51.156Z,100.00
2022-10-02T04:49:27.364Z,100.00
2022-10-02T04:52:06.864Z,100.00
2022-10-02T04:55:08.443Z,100.00
2022-10-02T04:58:13.663Z,100.00
2022-10-02T05:00:45.305Z,100.00
2022-10-02T05:03:51.691Z,100.00
2022-10-02T05:06:37.130Z,100.00
2022-10-02T05:09:18.434Z,100.00
2022-10-02T05:11:58.610Z,100.00
2022-10-02T05:14:37.293Z,100.00
2022-10-02T05:17:40.742Z,100.00
2022-10-02T05:20:28.933Z,100.00
2022-10-02T05:23:30.946Z,100.00
2022-10-02T05:26:29.640Z,100.00
2022-10-02T05:29:25.337Z,100.00
2022-10-02T05:32:20.248Z,100.00
2022-10-02T05:35:23.942Z,100.00
2022-10-02T05:38:16.370Z,100.00
2022-10-02T05:41:04.535Z,100.00
2022-10-02T05:43:46.421Z,100.00
2022-10-02T05:46:23.497Z,100.00
2022-10-02T05:49:03.003Z,100.00
2022-10-02T05:51:55.628Z,100.00
2022-10-02T05:54:30.541Z,100.00
2022-10-02T05:57:21.379Z,100.00
2022-10-02T06:00:06.575Z,100.00
2022-10-02T06:02:44.942Z,100.00
2022-10-02T06:05:34.679Z,100.00
2022-10-02T06:08:03.242Z,100.00
2022-10-02T06:10:36.620Z,100.00
2022-10-02T06:13:35.521Z,100.00
2022-10-02T06:16:10.761Z,100.00
2022-10-02T06:18:38.963Z,100.00
2022-10-02T06:21:22.279Z,100.00
2022-10-02T06:23:52.644Z,100.00
2022-10-02T06:26:45.692Z,100.00
2022-10-02T06:29:31.704Z,100.00
2022-10-02T06:32:15.298Z,100.00
2022-10-02T06:34:44.648Z,100.00
2022-10-02T06:37:38.038Z,98.57
2022-10-02T06:40:42.650Z,97.38
2022-10-02T06:43:14.017Z,96.64
2022-10-02T06:46:03.232Z,95.46
2022-10-02T06:48:54.064Z,95.68
2022-10-02T06:51:46.236Z,95.47
2022-10-02T06:54:25.944Z,95.99
2022-10-02T06:57:28.547Z,96.16
2022-10-02T07:00:02.290Z,96.59
2022-10-02T07:02:36.649Z,96.39
2022-10-02T07:05:30.881Z,96.08
2022-10-02T07:08:00.934Z,96.16
2022-10-02T07:10:38.677Z,95.55
2022-10-02T07:13:17.732Z,94.24
2022-10-02T07:15:55.603Z,93.14
2022-10-02T07:18:50.600Z,93.17
2022-10-02T07:21:40.785Z,92.58
2022-10-02T07:24:26.543Z,91.77
2022-10-02T07:27:02.880Z,91.39
2022-10-02T07:29:35.027Z,92.26
2022-10-02T07:32:30.935Z,91.54
2022-10-02T07:35:23.266Z,90.54
2022-10-02T07:38:10.090Z,89.63
2022-10-02T07:41:03.372Z,89.33
2022-10-02T07:43:47.472Z,90.28
2022-10-02T07:46:16.975Z,89.64
2022-10-02T07:49:00.522Z,90.56
2022-10-02T07:51:47.700Z,90.63
2022-10-02T07:54:22.150Z,91.13
2022-10-02T07:56:50.146Z,91.74
2022-10-02T07:59:17.625Z,92.13
2022-10-02T08:01:45.354Z,92.38
2022-10-02T08:04:22.749Z,93.73
2022-10-02T08:06:52.069Z,92.90
2022-10-02T08:09:27.939Z,92.76
2022-10-02T08:12:04.166Z,92.03
2022-10-02T08:14:39.344Z,91.09
2022-10-02T08:17:30.659Z,90.09
2022-10-02T08:20:04.081Z,89.09
2022-10-02T08:22:30.963Z,88.52
2022-10-02T08:24:59.924Z,87.72
2022-10-02T08:27:46.914Z,86.28
2022-10-02T08:30:19.473Z,85.99
2022-10-02T08:32:47.843Z,85.61
2022-10-02T08:35:17.052Z,84.99
2022-10-02T08:38:10.200Z,84.90
2022-10-02T08:41:23.139Z,85.47
2022-10-02T08:44:16.350Z,85.28
2022-10-02T08:47:07.206Z,85.85
2022-10-02T08:49:57.179Z,85.76
2022-10-02T08:53:09.856Z,86.00
2022-10-02T08:56:04.228Z,86.37
2022-10-02T08:59:04.363Z,86.37
2022-10-02T09:01:44.264Z,86.68
2022-10-02T09:04:40.714Z,86.77
2022-10-02T09:07:31.316Z,86.62
2022-10-02T09:10:35.640Z,85.81
2022-10-02T09:13:34.381Z,85.76
2022-10-02T09:16:11.579Z,85.07
2022-10-02T09:19:02.876Z,84.92
2022-10-02T09:21:51.739Z,83.90
2022-10-02T09:24:36.431Z,82.96
2022-10-02T09:27:47.199Z,82.56
2022-10-02T09:30:26.946Z,82.23
2022-10-02T09:33:07.807Z,81.11
2022-10-02T09:35:37.163Z,81.36
2022-10-02T09:38:30.034Z,82.34
2022-10-02T09:41:30.507Z,81.83
2022-10-02T09:44:29.005Z,80.71
2022-10-02T09:47:30.792Z,81.04
2022-10-02T09:50:22.645Z,80.72
2022-10-02T09:53:09.385Z,79.85
2022-10-02T09:56:03.415Z,80.92
2022-10-02T09:59:04.040Z,80.65
2022-10-02T10:01:57.942Z,80.95
2022-10-02T10:05:05.668Z,82.03
2022-10-02T10:08:10.205Z,83.67
2022-10-02T10:11:00.531Z,83.50
2022-10-02T10:13:38.052Z,81.73
2022-10-02T10:16:29.430Z,82.20
2022-10-02T10:19:13.255Z,82.01
2022-10-02T10:22:12.458Z,82.27
2022-10-02T10:24:57.742Z,82.70
2022-10-02T10:27:43.059Z,82.78
2022-10-02T10:30:39.198Z,83.52
2022-10-02T10:33:08.600Z,83.23
2022-10-02T10:36:05.591Z,82.81
2022-10-02T10:38:52.114Z,81.81
2022-10-02T10:41:31.831Z,81.62
2022-10-02T10:44:15.458Z,81.92
2022-10-02T10:47:18.209Z,82.49
2022-10-02T10:50:23.951Z,81.63
2022-10-02T10:53:22.466Z,80.76
2022-10-02T10:56:19.258Z,79.35
2022-10-02T10:59:06.293Z,79.83
2022-10-02T11:02:02.768Z,78.48
2022-10-02T11:04:38.865Z,78.85
2022-10-02T11:07:34.651Z,78.19
2022-10-02T11:10:28.279Z,77.28
2022-10-02T11:13:11.881Z,76.51
2022-10-02T11:15:59.200Z,74.47
2022-10-02T11:19:03.205Z,74.88
2022-10-02T11:21:46.008Z,75.70
2022-10-02T11:24:23.691Z,76.28
2022-10-02T11:26:50.184Z,75.69
2022-10-02T11:29:57.143Z,75.36
2022-10-02T11:32:36.128Z,76.46
2022-10-02T11:35:20.646Z,76.90
2022-10-02T11:38:04.162Z,75.86
2022-10-02T11:40:44.367Z,75.67
2022-10-02T11:43:13.987Z,74.68
2022-10-02T11:46:00.162Z,73.73
2022-10-02T11:48:44.899Z,72.93
2022-10-02T11:51:11.332Z,73.30
2022-10-02T11:54:21.946Z,74.27
2022-10-02T11:57:22.666Z,75.16
2022-10-02T11:59:54.966Z,75.52
2022-10-02T12:02:31.251Z,74.90
2022-10-02T12:05:08.280Z,74.92
2022-10-02T12:08:29.717Z,73.68
2022-10-02T12:11:02.666Z,72.65
2022-10-02T12:14:00.672Z,71.70
2022-10-02T12:16:51.944Z,72.53
2022-10-02T12:19:38.800Z,74.06
2022-10-02T12:22:33.120Z,74.10
2022-10-02T12:25:49.336Z,75.68
2022-10-02T12:28:28.521Z,76.23
2022-10-02T12:31:21.755Z,75.25
2022-10-02T12:34:24.692Z,75.16
2022-10-02T12:37:06.284Z,75.99
2022-10-02T12:39:51.590Z,75.79
2022-10-02T12:42:40.960Z,76.09
2022-10-02T12:45:27.736Z,76.34
2022-10-02T12:48:18.178Z,76.56
2022-10-02T12:51:09.902Z,76.52
2022-10-02T12:54:06.175Z,77.35
2022-10-02T12:56:37.959Z,77.55
2022-10-02T12:59:43.593Z,78.62
2022-10-02T13:03:01.337Z,79.16
2022-10-02T13:06:06.846Z,79.71
2022-10-02T13:08:58.652Z,77.20
2022-10-02T13:11:28.718Z,74.36
2022-10-02T13:14:16.462Z,72.05
2022-10-02T13:16:58.168Z,69.82
2022-10-02T13:19:30.371Z,68.02
2022-10-02T13:22:15.423Z,65.80
2022-10-02T13:25:15.720Z,66.68
2022-10-02T13:27:52.330Z,66.94
2022-10-02T13:30:25.591Z,66.86
2022-10-02T13:33:05.867Z,66.07
2022-10-02T13:36:17.027Z,63.95
2022-10-02T13:38:43.533Z,64.30
2022-10-02T13:41:28.779Z,64.03
2022-10-02T13:44:07.988Z,65.62
2022-10-02T13:47:05.788Z,67.71
2022-10-02T13:49:52.751Z,69.63
2022-10-02T13:52:38.269Z,73.46
2022-10-02T13:55:20.522Z,75.77
2022-10-02T13:58:24.564Z,73.59
2022-10-02T14:01:04.435Z,72.61
2022-10-02T14:03:54.643Z,71.21
2022-10-02T14:06:29.308Z,70.19
2022-10-02T14:09:14.580Z,69.64
2022-10-02T14:11:47.547Z,68.80
2022-10-02T14:14:45.852Z,68.59
2022-10-02T14:17:32.612Z,69.89
2022-10-02T14:20:19.001Z,69.96
2022-10-02T14:23:07.112Z,71.45
2022-10-02T14:25:42.881Z,73.02
2022-10-02T14:28:09.398Z,73.85
2022-10-02T14:30:45.818Z,75.18
2022-10-02T14:33:24.243Z,75.50
2022-10-02T14:36:07.156Z,76.46
2022-10-02T14:38:41.526Z,76.42
2022-10-02T14:41:28.941Z,76.67
2022-10-02T14:44:28.541Z,76.21
2022-10-02T14:47:24.210Z,77.00
2022-10-02T14:50:19.597Z,76.96
2022-10-02T14:53:04.816Z,76.30
2022-10-02T14:55:53.865Z,75.93
2022-10-02T14:58:39.312Z,74.96
2022-10-02T15:01:32.156Z,75.26
2022-10-02T15:04:17.236Z,75.70
2022-10-02T15:06:51.404Z,76.06
2022-10-02T15:09:33.337Z,76.63
2022-10-02T15:12:02.560Z,77.23
2022-10-02T15:14:51.090Z,77.29
2022-10-02T15:17:48.978Z,77.97
2022-10-02T15:20:39.132Z,76.78
2022-10-02T15:23:12.755Z,77.27
2022-10-02T15:25:39.109Z,77.35
2022-10-02T15:28:35.757Z,77.37
2022-10-02T15:31:41.149Z,77.42
2022-10-02T15:34:28.752Z,78.33
2022-10-02T15:37:08.520Z,78.19
2022-10-02T15:39:37.888Z,79.33
2022-10-02T15:42:08.724Z,79.38
2022-10-02T15:45:00.028Z,80.02
2022-10-02T15:47:49.086Z,80.40
2022-10-02T15:50:16.084Z,81.77
2022-10-02T15:53:02.034Z,82.70
2022-10-02T15:55:47.628Z,82.58
2022-10-02T15:58:26.154Z,82.65
2022-10-02T16:01:01.493Z,83.19
2022-10-02T16:03:53.924Z,83.57
2022-10-02T16:06:40.006Z,84.54
2022-10-02T16:09:35.641Z,85.36
2022-10-02T16:12:21.231Z,85.48
2022-10-02T16:15:02.444Z,86.28
2022-10-02T16:17:41.290Z,86.54
2022-10-02T16:20:30.438Z,86.61
2022-10-02T16:23:22.489Z,87.02
2022-10-02T16:26:18.578Z,86.88
2022-10-02T16:28:58.384Z,87.27
2022-10-02T16:31:37.101Z,87.54
2022-10-02T16:34:14.168Z,87.83
2022-10-02T16:36:51.018Z,87.59
2022-10-02T16:39:35.951Z,87.51
2022-10-02T16:42:31.974Z,87.89
2022-10-02T16:45:29.471Z,88.66
2022-10-02T16:48:07.907Z,88.67
2022-10-02T16:51:06.864Z,89.49
2022-10-02T16:53:41.865Z,89.47
2022-10-02T16:56:20.934Z,89.39
2022-10-02T16:59:01.415Z,89.75
2022-10-02T17:01:28.199Z,89.78
2022-10-02T17:03:56.445Z,90.30
2022-10-02T17:06:24.440Z,90.04
2022-10-02T17:09:12.099Z,90.34
2022-10-02T17:11:51.683Z,90.43
2022-10-02T17:14:22.026Z,90.96
2022-10-02T17:17:11.643Z,90.68
2022-10-02T17:19:52.179Z,90.49
2022-10-02T17:22:38.320Z,90.99
2022-10-02T17:25:06.748Z,91.11
2022-10-02T17:27:33.091Z,91.94
2022-10-02T17:30:17.152Z,91.81
2022-10-02T17:32:46.584Z,91.65
2022-10-02T17:35:19.734Z,92.09
2022-10-02T17:38:06.787Z,92.07
2022-10-02T17:40:47.174Z,92.45
2022-10-02T17:43:17.356Z,92.92
2022-10-02T17:46:21.523Z,93.40
2022-10-02T17:49:12.885Z,93.33
2022-10-02T17:52:27.630Z,93.71
2022-10-02T17:55:31.323Z,94.45
2022-10-02T17:58:17.939Z,94.92
2022-10-02T18:01:06.091Z,95.05
2022-10-02T18:03:54.418Z,95.48
2022-10-02T18:06:32.117Z,95.99
2022-10-02T18:09:04.862Z,96.50
2022-10-02T18:11:49.989Z,96.66
2022-10-02T18:14:31.115Z,97.31
2022-10-02T18:17:30.024Z,97.89
2022-10-02T18:20:18.543Z,97.89
2022-10-02T18:23:15.873Z,98.39
2022-10-02T18:26:14.333Z,98.77
2022-10-02T18:29:03.703Z,99.10
2022-10-02T18:32:00.524Z,99.72
2022-10-02T18:34:45.369Z,99.68
2022-10-02T18:37:54.565Z,100.00
2022-10-02T18:40:45.271Z,100.00
2022-10-02T18:43:15.524Z,100.00
2022-10-02T18:45:55.883Z,100.00
2022-10-02T18:48:41.055Z,100.00
2022-10-02T18:51:32.757Z,100.00
2022-10-02T18:54:13.374Z,100.00
2022-10-02T18:56:53.306Z,100.00
2022-10-02T18:59:59.070Z,100.00
2022-10-02T19:03:09.931Z,100.00
2022-10-02T19:05:42.306Z,100.00
2022-10-02T19:08:11.318Z,100.00
2022-10-02T19:10:41.046Z,100.00
2022-10-02T19:13:18.043Z,100.00
2022-10-02T19:15:46.653Z,100.00
2022-10-02T19:18:23.470Z,100.00
2022-10-02T19:21:11.227Z,100.00
2022-10-02T19:23:37.663Z,100.00
2022-10-02T19:26:24.815Z,100.00
2022-10-02T19:29:06.244Z,100.00
2022-10-02T19:31:36.248Z,100.00
2022-10-02T19:34:16.755Z,100.00
2022-10-02T19:36:50.314Z,100.00
2022-10-02T19:39:30.898Z,100.00
2022-10-02T19:42:00.798Z,100.00
2022-10-02T19:44:38.246Z,100.00
2022-10-02T19:47:17.183Z,100.00
2022-10-02T19:49:47.278Z,100.00
2022-10-02T19:52:33.246Z,100.00
2022-10-02T19:55:03.302Z,100.00
2022-10-02T19:57:31.740Z,100.00
2022-10-02T19:59:59.819Z,100.00
2022-10-02T20:02:30.024Z,100.00
2022-10-02T20:04:59.247Z,100.00
2022-10-02T20:07:28.002Z,100.00
2022-10-02T20:09:57.879Z,100.00
2022-10-02T20:12:30.635Z,100.00
2022-10-02T20:15:00.960Z,100.00
2022-10-02T20:17:27.427Z,100.00
2022-10-02T20:19:57.721Z,100.00
2022-10-02T20:22:50.058Z,100.00
2022-10-02T20:25:20.616Z,100.00
2022-10-02T20:27:55.954Z,100.00
2022-10-02T20:30:23.539Z,100.00
2022-10-02T20:33:06.804Z,100.00
2022-10-02T20:35:44.854Z,100.00
2022-10-02T20:38:18.035Z,100.00
2022-10-02T20:40:46.645Z,100.00
2022-10-02T20:43:18.919Z,100.00
2022-10-02T20:46:16.244Z,100.00
2022-10-02T20:49:08.142Z,100.00
2022-10-02T20:52:01.809Z,100.00
2022-10-02T20:55:31.040Z,100.00
2022-10-02T20:58:14.669Z,100.00
2022-10-02T21:01:12.603Z,100.00
2022-10-02T21:03:39.031Z,100.00
2022-10-02T21:06:22.507Z,100.00
2022-10-02T21:08:53.205Z,100.00
2022-10-02T21:11:29.337Z,100.00
2022-10-02T21:14:17.577Z,100.00
2022-10-02T21:17:14.012Z,100.00
2022-10-02T21:20:16.641Z,100.00
2022-10-02T21:23:08.862Z,100.00
2022-10-02T21:25:56.742Z,100.00
2022-10-02T21:28:51.546Z,100.00
2022-10-02T21:31:58.733Z,100.00
2022-10-02T21:34:46.941Z,100.00
2022-10-02T21:37:22.267Z,100.00
2022-10-02T21:40:20.367Z,100.00
2022-10-02T21:43:11.645Z,100.00
2022-10-02T21:46:09.113Z,100.00
2022-10-02T21:48:52.809Z,100.00
2022-10-02T21:51:46.052Z,100.00
2022-10-02T21:54:45.279Z,100.00
2022-10-02T21:57:20.675Z,100.00
2022-10-02T22:00:32.483Z,100.00
2022-10-02T22:03:17.745Z,100.00
2022-10-02T22:06:06.731Z,100.00
2022-10-02T22:08:58.931Z,100.00
2022-10-02T22:11:45.995Z,100.00
2022-10-02T22:14:23.398Z,100.00
2022-10-02T22:17:04.525Z,100.00
2022-10-02T22:19:36.875Z,100.00
2022-10-02T22:22:10.894Z,100.00
2022-10-02T22:25:04.256Z,100.00
2022-10-02T22:27:39.763Z,100.00
2022-10-02T22:30:07.618Z,100.00
2022-10-02T22:33:11.191Z,100.00
2022-10-02T22:36:02.957Z,100.00
2022-10-02T22:38:36.582Z,100.00
2022-10-02T22:41:05.679Z,100.00
2022-10-02T22:43:41.202Z,100.00
2022-10-02T22:46:17.154Z,100.00
2022-10-02T22:48:53.483Z,100.00
2022-10-02T22:51:29.842Z,100.00
2022-10-02T22:54:18.854Z,100.00
2022-10-02T22:56:57.966Z,100.00
2022-10-02T22:59:30.901Z,100.00
2022-10-02T23:02:28.908Z,100.00
2022-10-02T23:04:58.352Z,100.00
2022-10-02T23:07:43.487Z,100.00
2022-10-02T23:10:31.193Z,100.00
2022-10-02T23:13:15.508Z,100.00
2022-10-02T23:16:08.369Z,100.00
2022-10-02T23:18:45.505Z,100.00
2022-10-02T23:21:23.259Z,100.00
2022-10-02T23:24:05.291Z,100.00
2022-10-02T23:26:43.760Z,100.00
2022-10-02T23:29:27.574Z,100.00
2022-10-02T23:31:59.951Z,100.00
2022-10-02T23:34:35.839Z,100.00
2022-10-02T23:37:46.110Z,100.00
2022-10-02T23:40:47.702Z,100.00
2022-10-02T23:43:32.723Z,100.00
2022-10-02T23:46:23.003Z,100.00
2022-10-02T23:48:49.918Z,100.00
2022-10-02T23:51:41.948Z,100.00
2022-10-02T23:54:17.784Z,100.00
2022-10-02T23:57:19.984Z,100.00
